Time;durP1;ratioP1;P1;durP2;ratioP2;P2;SDS_P1;SDS_P2;PMS_P1;PMS_P2;Temp;Humidity;BMP_temperature;BMP_pressure;BME280_temperature;BME280_humidity;BME280_pressure;Samples;Min_cycle;Max_cycle;Signal;HPM_P1;HPM_P2
2023/08/04 00:01:10;;;;;;;;;;;;;;;;;;;;;
2023/08/04 00:03:39;;;;;;;10.07;9.77;;;15.40;99.90;;;;;;6263176;22;21088;-88
2023/08/04 00:06:21;;;;;;;10.00;9.70;;;15.40;99.90;;;;;;6259793;22;20254;-89
2023/08/04 00:08:51;;;;;;;10.10;9.80;;;15.40;99.90;;;;;;6258920;22;20194;-88
2023/08/04 00:11:34;;;;;;;;;;;;;;;;;;;;;
2023/08/04 00:14:13;;;;;;;10.43;10.13;;;15.40;99.90;;;;;;6259008;22;20194;-88
2023/08/04 00:16:51;;;;;;;10.07;9.77;;;15.40;99.90;;;;;;6257575;22;20268;-88
2023/08/04 00:19:20;;;;;;;9.90;9.60;;;15.40;99.90;;;;;;6257264;22;20198;-89
2023/08/04 00:22:02;;;;;;;9.80;9.50;;;15.50;99.90;;;;;;6256882;22;20194;-89
2023/08/04 00:24:32;;;;;;;10.07;9.77;;;15.50;99.90;;;;;;6257098;22;20205;-88
2023/08/04 00:27:08;;;;;;;9.70;9.40;;;15.50;99.90;;;;;;6258497;22;20260;-89
2023/08/04 00:29:42;;;;;;;10.07;9.77;;;15.50;99.90;;;;;;6256972;22;20198;-88
2023/08/04 00:32:14;;;;;;;9.90;9.60;;;15.40;99.90;;;;;;6256448;22;20204;-89
2023/08/04 00:34:55;;;;;;;9.80;9.50;;;15.40;99.90;;;;;;6256744;22;20206;-89
2023/08/04 00:40:40;;;;;;;9.88;9.57;;;15.40;99.90;;;;;;6253868;22;20229;-88
2023/08/04 00:43:17;;;;;;;9.63;9.32;;;15.40;99.90;;;;;;6257013;22;20217;-89
2023/08/04 00:45:48;;;;;;;9.88;9.57;;;15.40;99.90;;;;;;6257901;22;20237;-88
2023/08/04 00:48:18;;;;;;;9.95;9.65;;;15.40;99.90;;;;;;6256547;22;20294;-88
2023/08/04 00:51:01;;;;;;;9.95;9.65;;;15.40;99.90;;;;;;6256123;22;20202;-88
2023/08/04 00:53:36;;;;;;;10.00;9.70;;;15.40;99.90;;;;;;6256911;22;20190;-87
2023/08/04 00:56:19;;;;;;;9.85;9.55;;;15.40;99.90;;;;;;6256503;22;20281;-88
2023/08/04 00:58:53;;;;;;;9.77;9.48;;;15.40;99.90;;;;;;6257388;22;20190;-89
2023/08/04 01:01:38;;;;;;;;;;;;;;;;;;;;;
2023/08/04 01:04:09;;;;;;;10.00;9.70;;;15.50;99.90;;;;;;6267491;22;20201;-88
2023/08/04 01:06:56;;;;;;;10.27;9.98;;;15.40;99.90;;;;;;6260666;22;20201;-88
2023/08/04 01:10:16;;;;;;;9.98;9.68;;;15.40;99.90;;;;;;6258622;22;20198;-89
2023/08/04 01:13:13;;;;;;;9.85;9.55;;;15.40;99.90;;;;;;6272721;22;20185;-87
2023/08/04 01:15:48;;;;;;;9.80;9.50;;;15.40;99.90;;;;;;6276563;22;20190;-88
2023/08/04 01:18:47;;;;;;;;;;;;;;;;;;;;;
2023/08/04 01:21:24;;;;;;;9.85;9.55;;;15.30;99.90;;;;;;6258480;22;20274;-88
2023/08/04 01:24:07;;;;;;;9.82;9.52;;;15.20;99.90;;;;;;6258604;22;20252;-88
2023/08/04 01:26:49;;;;;;;9.70;9.40;;;15.20;99.90;;;;;;6258149;22;20201;-88
2023/08/04 01:29:27;;;;;;;9.52;9.23;;;15.10;99.90;;;;;;6258206;22;20186;-88
2023/08/04 01:32:05;;;;;;;9.30;9.00;;;15.10;99.90;;;;;;6257511;22;20197;-88
2023/08/04 01:34:47;;;;;;;9.07;8.77;;;15.20;99.90;;;;;;6258768;22;20194;-88
2023/08/04 01:37:33;;;;;;;9.48;9.18;;;15.20;99.90;;;;;;6257436;22;20260;-88
2023/08/04 01:40:10;;;;;;;9.13;8.82;;;15.10;99.90;;;;;;6243370;22;20198;-89
2023/08/04 01:42:55;;;;;;;;;;;;;;;;;;;;;
2023/08/04 01:45:35;;;;;;;9.10;8.80;;;15.10;99.90;;;;;;6259937;22;20221;-88
2023/08/04 01:48:03;;;;;;;9.50;9.20;;;15.00;99.90;;;;;;6266153;22;20201;-88
2023/08/04 01:50:42;;;;;;;9.07;8.77;;;14.90;99.90;;;;;;6261105;22;20206;-88
2023/08/04 01:53:26;;;;;;;9.45;9.15;;;14.90;99.90;;;;;;6259002;22;20221;-88
2023/08/04 01:56:03;;;;;;;9.63;9.32;;;14.80;99.90;;;;;;6258627;22;20196;-89
2023/08/04 01:58:41;;;;;;;9.70;9.40;;;14.90;99.90;;;;;;6259559;22;20225;-88
2023/08/04 02:01:16;;;;;;;9.77;9.48;;;14.90;99.90;;;;;;6257981;22;20237;-89
2023/08/04 02:03:49;;;;;;;9.88;9.57;;;14.90;99.90;;;;;;6259279;22;20249;-89
2023/08/04 02:06:29;;;;;;;9.93;9.63;;;14.80;99.90;;;;;;6260352;22;20198;-88
2023/08/04 02:09:07;;;;;;;9.90;9.60;;;14.80;99.90;;;;;;6259440;22;20205;-89
2023/08/04 02:12:01;;;;;;;10.00;9.70;;;14.80;99.90;;;;;;6258911;22;20286;-89
2023/08/04 02:14:39;;;;;;;9.90;9.60;;;14.80;99.90;;;;;;6260937;22;20194;-89
2023/08/04 02:17:19;;;;;;;10.10;9.80;;;14.70;99.90;;;;;;6259548;22;20229;-88
2023/08/04 02:19:51;;;;;;;10.00;9.70;;;14.70;99.90;;;;;;6258633;22;20202;-88
2023/08/04 02:22:29;;;;;;;9.88;9.57;;;14.70;99.90;;;;;;6258276;22;20277;-88
2023/08/04 02:25:10;;;;;;;;;;;;;;;;;;;;;
2023/08/04 02:27:41;;;;;;;9.98;9.68;;;14.70;99.90;;;;;;6259298;22;20201;-88
2023/08/04 02:30:27;;;;;;;;;;;;;;;;;;;;;
2023/08/04 02:32:57;;;;;;;9.90;9.60;;;14.70;99.90;;;;;;6258221;22;20194;-88
2023/08/04 02:35:39;;;;;;;;;;;;;;;;;;;;;
2023/08/04 02:38:14;;;;;;;9.70;9.40;;;14.70;99.90;;;;;;6250437;22;20278;-88
2023/08/04 02:40:54;;;;;;;9.38;9.07;;;14.60;99.90;;;;;;6259856;22;20197;-89
2023/08/04 02:44:03;;;;;;;;;;;;;;;;;;;;;
2023/08/04 02:46:34;;;;;;;9.30;9.00;;;14.70;99.90;;;;;;6231178;22;20202;-88
2023/08/04 02:49:04;;;;;;;9.18;8.88;;;14.70;99.90;;;;;;6260202;22;20203;-88
2023/08/04 02:51:32;;;;;;;9.30;9.00;;;14.80;99.90;;;;;;6259263;22;20233;-88
2023/08/04 02:57:01;;;;;;;9.32;9.02;;;14.80;99.90;;;;;;6265035;22;20257;-89
2023/08/04 02:59:36;;;;;;;9.27;8.98;;;14.80;99.90;;;;;;6264434;22;20253;-89
2023/08/04 03:02:09;;;;;;;9.10;8.80;;;14.80;99.90;;;;;;6259484;22;20268;-89
2023/08/04 03:04:45;;;;;;;9.20;8.90;;;14.90;99.90;;;;;;6259195;22;20198;-88
2023/08/04 03:07:19;;;;;;;9.52;9.23;;;14.90;99.90;;;;;;6265991;22;20221;-88
2023/08/04 03:09:59;;;;;;;9.15;8.85;;;14.90;99.90;;;;;;6278528;22;20186;-88
2023/08/04 03:12:45;;;;;;;9.02;8.73;;;14.90;99.90;;;;;;6266103;22;20200;-88
2023/08/04 03:15:26;;;;;;;9.30;9.00;;;14.90;99.90;;;;;;6259509;22;20198;-88
2023/08/04 03:18:04;;;;;;;9.20;8.90;;;14.90;99.90;;;;;;6259209;22;20194;-88
2023/08/04 03:20:36;;;;;;;8.68;8.48;;;14.90;99.90;;;;;;6256896;22;20210;-77
2023/08/04 03:23:03;;;;;;;8.80;8.60;;;14.90;99.90;;;;;;6252952;22;20269;-78
2023/08/04 03:25:31;;;;;;;8.93;8.73;;;14.90;99.90;;;;;;6257399;22;20206;-78
2023/08/04 03:27:59;;;;;;;8.98;8.77;;;14.90;99.90;;;;;;6253260;22;20265;-78
2023/08/04 03:30:26;;;;;;;9.43;9.13;;;14.90;99.90;;;;;;6253572;22;20217;-78
2023/08/04 03:32:53;;;;;;;9.10;8.80;;;14.90;99.90;;;;;;6253006;22;20222;-79
2023/08/04 03:35:21;;;;;;;9.10;8.80;;;15.00;99.90;;;;;;6253308;22;20201;-77
2023/08/04 03:37:48;;;;;;;9.20;8.90;;;15.00;99.90;;;;;;6253081;22;20217;-78
2023/08/04 03:40:15;;;;;;;9.60;9.30;;;15.00;99.90;;;;;;6252327;22;20249;-77
2023/08/04 03:42:43;;;;;;;9.68;9.38;;;15.10;99.90;;;;;;6252053;22;20198;-78
2023/08/04 03:45:12;;;;;;;9.50;9.20;;;15.10;99.90;;;;;;6252394;22;20210;-78
2023/08/04 03:47:41;;;;;;;9.40;9.10;;;15.10;99.90;;;;;;6253426;22;20214;-78
2023/08/04 03:50:18;;;;;;;9.27;8.98;;;15.10;99.90;;;;;;6254630;22;20213;-79
2023/08/04 03:52:45;;;;;;;9.63;9.32;;;15.10;99.90;;;;;;6271789;22;20181;-78
2023/08/04 03:55:12;;;;;;;9.52;9.23;;;15.20;99.90;;;;;;6259429;22;20284;-78
2023/08/04 03:57:39;;;;;;;9.88;9.57;;;15.20;99.90;;;;;;6259630;22;20213;-78
2023/08/04 04:00:08;;;;;;;10.30;10.00;;;15.30;99.90;;;;;;6256661;22;20254;-78
2023/08/04 04:02:37;;;;;;;9.73;9.43;;;15.30;99.90;;;;;;6254943;22;20202;-78
2023/08/04 04:05:04;;;;;;;9.90;9.60;;;15.30;99.90;;;;;;6253733;22;20245;-78
2023/08/04 04:07:31;;;;;;;9.77;9.48;;;15.40;99.90;;;;;;6254899;22;20554;-78
2023/08/04 04:09:58;;;;;;;9.88;9.57;;;15.40;99.90;;;;;;6253824;22;20261;-77
2023/08/04 04:12:25;;;;;;;9.88;9.57;;;15.40;99.90;;;;;;6253644;22;20273;-79
2023/08/04 04:14:53;;;;;;;9.93;9.63;;;15.50;99.90;;;;;;6253121;22;20200;-79
2023/08/04 04:17:20;;;;;;;9.65;9.35;;;15.50;99.90;;;;;;6254111;22;20209;-78
2023/08/04 04:19:48;;;;;;;10.00;9.70;;;15.50;99.90;;;;;;6253291;22;20201;-78
2023/08/04 04:22:16;;;;;;;10.05;9.75;;;15.50;99.90;;;;;;6252808;22;20202;-77
2023/08/04 04:24:43;;;;;;;9.82;9.52;;;15.50;99.90;;;;;;6254172;22;20244;-78
2023/08/04 04:27:11;;;;;;;10.00;9.70;;;15.60;99.90;;;;;;6253902;22;20199;-78
2023/08/04 04:29:39;;;;;;;9.93;9.63;;;15.60;99.90;;;;;;6253050;22;20203;-79
2023/08/04 04:32:07;;;;;;;10.00;9.70;;;15.50;99.90;;;;;;6253123;22;20256;-79
2023/08/04 04:34:34;;;;;;;9.80;9.50;;;15.50;99.90;;;;;;6253966;22;20194;-79
2023/08/04 04:37:03;;;;;;;10.10;9.80;;;15.60;99.90;;;;;;6254317;22;20194;-78
2023/08/04 04:39:30;;;;;;;9.93;9.63;;;15.60;99.90;;;;;;6254628;22;20273;-77
2023/08/04 04:41:57;;;;;;;9.73;9.43;;;15.60;99.90;;;;;;6254096;22;20222;-78
2023/08/04 04:44:24;;;;;;;9.82;9.52;;;15.70;99.90;;;;;;6260243;22;20644;-78
2023/08/04 04:46:51;;;;;;;9.85;9.55;;;15.70;99.90;;;;;;6253405;22;20202;-79
2023/08/04 04:49:19;;;;;;;9.80;9.50;;;15.70;99.90;;;;;;6253964;22;20210;-77
2023/08/04 04:51:46;;;;;;;9.70;9.40;;;15.70;99.90;;;;;;6254014;22;20230;-78
2023/08/04 04:54:14;;;;;;;9.70;9.40;;;15.80;99.90;;;;;;6254578;22;20265;-78
2023/08/04 04:56:41;;;;;;;9.63;9.32;;;15.80;99.90;;;;;;6254707;22;20277;-78
2023/08/04 04:59:08;;;;;;;10.15;9.85;;;15.90;99.90;;;;;;6254857;22;20329;-78
2023/08/04 05:01:36;;;;;;;9.90;9.60;;;15.80;99.90;;;;;;6254622;22;20677;-79
2023/08/04 05:04:03;;;;;;;10.00;9.70;;;15.90;99.90;;;;;;6254208;22;20201;-78
2023/08/04 05:06:30;;;;;;;9.90;9.60;;;15.90;99.90;;;;;;6254437;22;20202;-78
2023/08/04 05:08:57;;;;;;;9.80;9.50;;;15.90;99.90;;;;;;6255013;22;20218;-78
2023/08/04 05:11:25;;;;;;;9.70;9.40;;;15.90;99.90;;;;;;6254846;22;20245;-80
2023/08/04 05:13:52;;;;;;;9.73;9.43;;;15.90;99.90;;;;;;6255045;22;20238;-78
2023/08/04 05:16:20;;;;;;;9.90;9.60;;;15.90;99.90;;;;;;6257526;22;20288;-77
2023/08/04 05:18:47;;;;;;;9.95;9.65;;;15.90;99.90;;;;;;6258760;22;20205;-79
2023/08/04 05:21:14;;;;;;;9.65;9.35;;;15.90;99.90;;;;;;6258783;22;20264;-79
2023/08/04 05:23:41;;;;;;;9.70;9.40;;;15.90;99.90;;;;;;6256863;22;20205;-78
2023/08/04 05:26:08;;;;;;;9.80;9.50;;;15.90;99.90;;;;;;6256036;22;20226;-78
2023/08/04 05:28:37;;;;;;;9.80;9.50;;;15.90;99.90;;;;;;6255459;22;20217;-78
2023/08/04 05:31:08;;;;;;;9.75;9.45;;;16.00;99.90;;;;;;6253781;22;20210;-79
2023/08/04 05:33:35;;;;;;;10.10;9.80;;;16.00;99.90;;;;;;6255694;22;20205;-79
2023/08/04 05:36:02;;;;;;;9.88;9.57;;;16.10;99.90;;;;;;6259651;22;20198;-79
2023/08/04 05:38:29;;;;;;;10.50;10.20;;;16.20;99.90;;;;;;6253787;22;20206;-79
2023/08/04 05:41:01;;;;;;;10.10;9.80;;;16.30;99.90;;;;;;6253682;22;20237;-78
2023/08/04 05:43:29;;;;;;;10.30;10.00;;;16.30;99.90;;;;;;6254601;22;20233;-79
2023/08/04 05:46:02;;;;;;;10.40;10.10;;;16.40;99.90;;;;;;6253455;22;20225;-77
2023/08/04 05:48:30;;;;;;;10.32;10.02;;;16.50;99.90;;;;;;6253699;22;20200;-78
2023/08/04 05:50:57;;;;;;;9.82;9.52;;;16.60;99.90;;;;;;6253467;22;20199;-78
2023/08/04 05:53:24;;;;;;;10.20;9.90;;;16.80;99.90;;;;;;6254805;22;20186;-79
2023/08/04 05:55:52;;;;;;;10.45;10.15;;;16.90;99.90;;;;;;6259571;22;20229;-78
2023/08/04 05:58:19;;;;;;;10.30;10.00;;;16.90;99.90;;;;;;6256802;22;20201;-77
2023/08/04 06:00:47;;;;;;;9.88;9.57;;;17.00;99.90;;;;;;6255713;22;20210;-79
2023/08/04 06:03:15;;;;;;;10.05;9.75;;;17.10;99.90;;;;;;6256448;22;20209;-79
2023/08/04 06:05:43;;;;;;;10.20;9.90;;;17.20;99.90;;;;;;6255845;22;20253;-79
2023/08/04 06:08:10;;;;;;;10.10;9.80;;;17.40;99.90;;;;;;6258500;22;20225;-78
2023/08/04 06:10:38;;;;;;;10.55;10.25;;;17.40;99.90;;;;;;6256404;22;20229;-78
2023/08/04 06:13:05;;;;;;;10.30;10.00;;;17.50;99.90;;;;;;6255554;22;20195;-79
2023/08/04 06:15:32;;;;;;;10.40;10.10;;;17.60;99.90;;;;;;6255222;22;20207;-79
2023/08/04 06:17:59;;;;;;;10.15;9.85;;;17.70;99.90;;;;;;6255860;22;20194;-78
2023/08/04 06:20:28;;;;;;;10.38;10.07;;;17.90;99.90;;;;;;6255269;22;20318;-78
2023/08/04 06:22:55;;;;;;;10.48;10.18;;;17.90;99.90;;;;;;6256189;22;20199;-78
2023/08/04 06:25:22;;;;;;;10.45;10.15;;;17.90;99.90;;;;;;6271449;22;20246;-78
2023/08/04 06:27:50;;;;;;;10.13;9.82;;;17.90;99.90;;;;;;6262694;22;20202;-79
2023/08/04 06:30:18;;;;;;;10.18;9.88;;;17.70;99.90;;;;;;6258870;22;20286;-79
2023/08/04 06:32:46;;;;;;;10.38;10.07;;;17.60;99.90;;;;;;6255764;22;20206;-79
2023/08/04 06:35:14;;;;;;;10.20;9.90;;;17.50;99.90;;;;;;6254369;22;20251;-79
2023/08/04 06:37:42;;;;;;;10.40;10.10;;;17.30;99.90;;;;;;6254682;22;20226;-78
2023/08/04 06:40:11;;;;;;;10.50;10.20;;;17.20;99.90;;;;;;6254414;22;20191;-79
2023/08/04 06:42:38;;;;;;;10.25;9.95;;;17.20;99.90;;;;;;6254461;22;20221;-78
2023/08/04 06:45:07;;;;;;;10.20;9.90;;;17.20;99.90;;;;;;6253795;22;20231;-78
2023/08/04 06:47:35;;;;;;;10.20;9.90;;;17.20;99.90;;;;;;6254495;22;20202;-80
2023/08/04 06:50:03;;;;;;;10.38;10.07;;;17.20;99.90;;;;;;6255681;22;20214;-79
2023/08/04 06:52:30;;;;;;;10.30;10.00;;;17.30;99.90;;;;;;6254165;22;20298;-78
2023/08/04 06:54:59;;;;;;;10.13;9.82;;;17.40;99.90;;;;;;6256188;22;20209;-78
2023/08/04 06:57:26;;;;;;;10.38;10.07;;;17.60;99.90;;;;;;6255524;22;20206;-79
2023/08/04 06:59:53;;;;;;;10.27;9.98;;;17.80;99.90;;;;;;6255263;22;20288;-79
2023/08/04 07:02:20;;;;;;;10.20;9.90;;;17.90;99.90;;;;;;6254688;22;20209;-79
2023/08/04 07:04:47;;;;;;;10.20;9.90;;;18.00;99.90;;;;;;6254538;22;20266;-79
2023/08/04 07:07:14;;;;;;;10.18;9.88;;;18.10;99.90;;;;;;6255014;22;20190;-80
2023/08/04 07:09:42;;;;;;;10.27;9.98;;;18.30;99.90;;;;;;6254382;22;20213;-79
2023/08/04 07:12:10;;;;;;;10.00;9.70;;;18.40;99.90;;;;;;6254407;22;20292;-80
2023/08/04 07:14:37;;;;;;;9.80;9.50;;;18.50;99.90;;;;;;6261044;22;20236;-79
2023/08/04 07:17:05;;;;;;;9.80;9.50;;;18.70;99.90;;;;;;6253364;22;20269;-79
2023/08/04 07:19:32;;;;;;;9.85;9.55;;;18.80;99.90;;;;;;6254551;22;20213;-81
2023/08/04 07:21:59;;;;;;;10.10;9.80;;;18.80;99.90;;;;;;6254598;22;20272;-80
2023/08/04 07:24:27;;;;;;;10.02;9.73;;;18.90;99.90;;;;;;6255383;22;20202;-78
2023/08/04 07:26:54;;;;;;;10.50;10.20;;;19.00;99.90;;;;;;6254589;22;20206;-80
2023/08/04 07:29:22;;;;;;;10.73;10.43;;;19.00;99.90;;;;;;6254662;22;20306;-78
2023/08/04 07:31:49;;;;;;;10.80;10.50;;;19.00;99.90;;;;;;6253786;22;20209;-79
2023/08/04 07:34:16;;;;;;;10.57;10.27;;;19.00;99.90;;;;;;6254744;22;20245;-79
2023/08/04 07:36:43;;;;;;;9.80;9.50;;;18.90;99.90;;;;;;6254767;22;20222;-80
2023/08/04 07:39:11;;;;;;;10.10;9.80;;;19.00;99.90;;;;;;6254226;22;20206;-79
2023/08/04 07:41:38;;;;;;;10.00;9.70;;;19.10;99.90;;;;;;6253975;22;20221;-80
2023/08/04 07:44:05;;;;;;;10.10;9.80;;;19.20;99.90;;;;;;6254513;22;20249;-80
2023/08/04 07:46:34;;;;;;;10.75;10.45;;;19.30;99.90;;;;;;6254709;22;20202;-80
2023/08/04 07:49:01;;;;;;;10.18;9.88;;;19.50;99.90;;;;;;6255905;22;20221;-80
2023/08/04 07:51:29;;;;;;;10.18;9.88;;;19.60;99.90;;;;;;6257065;22;20210;-80
2023/08/04 07:53:56;;;;;;;10.30;10.00;;;19.70;99.90;;;;;;6257265;22;20208;-80
2023/08/04 07:56:23;;;;;;;10.30;10.00;;;19.70;99.90;;;;;;6257247;22;20289;-80
2023/08/04 07:58:50;;;;;;;10.30;10.00;;;19.80;99.90;;;;;;6257695;22;20298;-80
2023/08/04 08:01:17;;;;;;;10.40;10.10;;;19.90;99.90;;;;;;6256404;22;20210;-80
2023/08/04 08:03:46;;;;;;;10.20;9.90;;;20.00;99.90;;;;;;6257406;22;20224;-80
2023/08/04 08:06:13;;;;;;;10.20;9.90;;;19.90;99.90;;;;;;6266167;22;20201;-79
2023/08/04 08:08:40;;;;;;;10.52;10.23;;;19.90;99.90;;;;;;6259494;22;20205;-79
2023/08/04 08:11:10;;;;;;;10.65;10.35;;;19.80;99.90;;;;;;6256327;22;20236;-80
2023/08/04 08:13:37;;;;;;;10.68;10.38;;;19.80;99.90;;;;;;6255995;22;20194;-78
2023/08/04 08:16:09;;;;;;;9.73;9.43;;;19.80;99.90;;;;;;6255120;22;20269;-80
2023/08/04 08:18:37;;;;;;;9.85;9.55;;;19.80;99.90;;;;;;6258503;22;20253;-80
2023/08/04 08:21:08;;;;;;;9.70;9.40;;;19.80;99.90;;;;;;6257078;22;20233;-80
2023/08/04 08:23:36;;;;;;;9.77;9.48;;;19.90;99.90;;;;;;6258327;22;20190;-81
2023/08/04 08:26:04;;;;;;;10.07;9.77;;;20.00;99.90;;;;;;6256050;22;20244;-79
2023/08/04 08:28:32;;;;;;;10.20;9.90;;;20.00;99.90;;;;;;6257807;22;20273;-79
2023/08/04 08:30:59;;;;;;;10.05;9.75;;;20.10;99.90;;;;;;6257056;22;20210;-80
2023/08/04 08:33:26;;;;;;;9.93;9.63;;;20.30;99.90;;;;;;6257609;22;20254;-78
2023/08/04 08:35:53;;;;;;;10.10;9.80;;;20.30;99.90;;;;;;6257551;22;20198;-79
2023/08/04 08:38:22;;;;;;;10.02;9.73;;;20.40;99.90;;;;;;6258795;22;20194;-79
2023/08/04 08:40:49;;;;;;;10.80;10.50;;;20.50;99.90;;;;;;6256641;22;20208;-79
2023/08/04 08:43:17;;;;;;;10.50;10.20;;;20.60;99.90;;;;;;6255851;22;20194;-78
2023/08/04 08:45:45;;;;;;;10.45;10.15;;;20.60;99.90;;;;;;6256983;22;20288;-79
2023/08/04 08:48:12;;;;;;;10.60;10.30;;;20.80;99.90;;;;;;6257259;22;20202;-79
2023/08/04 08:50:41;;;;;;;10.50;10.20;;;20.90;99.90;;;;;;6256158;22;20252;-80
2023/08/04 08:53:12;;;;;;;10.85;10.55;;;21.00;99.90;;;;;;6256268;22;20194;-80
2023/08/04 08:55:42;;;;;;;10.60;10.30;;;21.10;99.90;;;;;;6256771;22;20208;-79
2023/08/04 08:58:10;;;;;;;10.45;10.15;;;21.30;99.90;;;;;;6265904;22;20195;-79
2023/08/04 09:00:38;;;;;;;10.75;10.45;;;21.40;99.90;;;;;;6268034;22;20245;-79
2023/08/04 09:03:06;;;;;;;10.60;10.30;;;21.50;99.90;;;;;;6260505;22;20200;-80
2023/08/04 09:05:34;;;;;;;10.60;10.30;;;21.70;99.90;;;;;;6258698;22;20269;-79
2023/08/04 09:08:02;;;;;;;10.32;10.02;;;21.90;99.90;;;;;;6257880;22;20201;-80
2023/08/04 09:10:32;;;;;;;10.70;10.40;;;22.00;99.90;;;;;;6256519;22;20210;-80
2023/08/04 09:13:02;;;;;;;10.35;10.05;;;22.30;99.90;;;;;;6256507;22;20260;-79
2023/08/04 09:15:36;;;;;;;10.60;10.30;;;22.50;99.90;;;;;;6256749;22;20224;-78
2023/08/04 09:18:07;;;;;;;10.60;10.30;;;22.60;99.90;;;;;;6257703;22;20201;-79
2023/08/04 09:20:35;;;;;;;10.57;10.27;;;22.50;99.90;;;;;;6256778;22;20288;-79
2023/08/04 09:23:02;;;;;;;10.70;10.40;;;22.60;99.90;;;;;;6257354;22;20202;-80
2023/08/04 09:25:29;;;;;;;10.27;9.98;;;22.70;99.90;;;;;;6265716;22;20190;-79
2023/08/04 09:27:56;;;;;;;10.65;10.35;;;22.80;99.90;;;;;;6274466;22;20206;-79
2023/08/04 09:30:25;;;;;;;10.57;10.27;;;22.90;99.90;;;;;;6272535;22;20197;-79
2023/08/04 09:32:52;;;;;;;10.40;10.10;;;23.10;99.90;;;;;;6272938;22;20242;-79
2023/08/04 09:35:19;;;;;;;10.30;10.00;;;23.10;99.90;;;;;;6267681;22;20202;-79
2023/08/04 09:37:46;;;;;;;10.30;10.00;;;23.00;99.90;;;;;;6261042;22;20683;-79
2023/08/04 09:40:16;;;;;;;10.35;10.05;;;23.00;99.90;;;;;;6260386;22;20265;-79
2023/08/04 09:42:44;;;;;;;10.50;10.20;;;23.10;99.90;;;;;;6260788;22;20257;-79
2023/08/04 09:45:15;;;;;;;10.40;10.10;;;23.10;99.90;;;;;;6258198;22;20206;-79
2023/08/04 09:47:48;;;;;;;10.30;10.00;;;22.90;99.90;;;;;;6258559;22;20194;-79
2023/08/04 09:50:15;;;;;;;10.35;10.05;;;22.90;99.90;;;;;;6260601;22;20210;-80
2023/08/04 09:52:42;;;;;;;10.20;9.90;;;23.20;99.90;;;;;;6257904;22;20201;-80
2023/08/04 09:55:10;;;;;;;9.82;9.52;;;23.50;99.90;;;;;;6256164;22;20205;-78
2023/08/04 09:57:38;;;;;;;10.05;9.75;;;23.70;99.90;;;;;;6256267;22;20202;-80
2023/08/04 10:00:07;;;;;;;9.75;9.45;;;23.80;99.90;;;;;;6260433;22;20210;-81
2023/08/04 10:02:34;;;;;;;10.07;9.77;;;23.50;99.90;;;;;;6257847;22;20240;-78
2023/08/04 10:05:04;;;;;;;10.02;9.73;;;23.10;99.90;;;;;;6254484;22;20194;-79
2023/08/04 10:07:32;;;;;;;9.55;9.25;;;23.00;99.90;;;;;;6254954;22;20198;-79
2023/08/04 10:10:00;;;;;;;9.75;9.45;;;23.00;99.90;;;;;;6254192;22;20317;-79
2023/08/04 10:12:29;;;;;;;9.57;9.27;;;22.90;99.90;;;;;;6254283;22;20196;-79
2023/08/04 10:14:57;;;;;;;9.55;9.25;;;22.70;99.90;;;;;;6254409;22;20199;-79
2023/08/04 10:17:24;;;;;;;9.95;9.65;;;22.60;99.90;;;;;;6257255;22;20196;-81
2023/08/04 10:20:04;;;;;;;9.50;9.20;;;22.40;99.90;;;;;;6258884;22;20202;-80
2023/08/04 10:22:33;;;;;;;9.57;9.27;;;22.30;99.90;;;;;;6259067;22;20213;-79
2023/08/04 10:25:00;;;;;;;9.95;9.65;;;22.40;99.90;;;;;;6259265;22;20214;-80
2023/08/04 10:27:29;;;;;;;9.85;9.55;;;22.50;99.90;;;;;;6258062;22;20203;-81
2023/08/04 10:30:04;;;;;;;9.90;9.60;;;22.40;99.90;;;;;;6255439;22;20218;-78
2023/08/04 10:32:38;;;;;;;9.80;9.50;;;22.50;99.90;;;;;;6253182;22;20209;-79
2023/08/04 10:35:09;;;;;;;9.65;9.35;;;22.50;99.90;;;;;;6257361;22;20221;-80
2023/08/04 10:37:50;;;;;;;10.18;9.88;;;22.30;99.90;;;;;;6257400;22;20191;-79
2023/08/04 10:40:29;;;;;;;9.80;9.50;;;22.20;99.90;;;;;;6256813;22;20617;-79
2023/08/04 10:43:03;;;;;;;9.40;9.10;;;22.20;99.90;;;;;;6263934;22;20196;-79
2023/08/04 10:45:53;;;;;;;9.80;9.50;;;22.20;99.90;;;;;;6258116;22;20200;-79
2023/08/04 10:48:21;;;;;;;10.10;9.80;;;22.20;99.90;;;;;;6254489;22;20218;-77
2023/08/04 10:50:50;;;;;;;10.13;9.82;;;22.20;99.90;;;;;;6252896;22;20218;-79
2023/08/04 10:53:18;;;;;;;10.30;10.00;;;22.20;99.90;;;;;;6253336;22;20216;-80
2023/08/04 10:55:54;;;;;;;9.80;9.50;;;22.20;99.90;;;;;;6253256;22;20202;-78
2023/08/04 10:58:21;;;;;;;9.77;9.48;;;22.10;99.90;;;;;;6252883;22;20260;-79
2023/08/04 11:00:48;;;;;;;9.90;9.60;;;22.10;99.90;;;;;;6253150;22;20220;-79
2023/08/04 11:03:22;;;;;;;9.90;9.60;;;22.20;99.90;;;;;;6252970;22;20269;-79
2023/08/04 11:05:52;;;;;;;9.60;9.30;;;22.30;99.90;;;;;;6254419;22;20190;-79
2023/08/04 11:08:19;;;;;;;9.70;9.40;;;22.40;99.90;;;;;;6257890;22;20293;-79
2023/08/04 11:10:48;;;;;;;10.10;9.80;;;22.50;99.90;;;;;;6257192;22;20233;-79
2023/08/04 11:13:18;;;;;;;10.13;9.82;;;22.70;99.90;;;;;;6256032;22;20195;-79
2023/08/04 11:15:46;;;;;;;10.35;10.05;;;22.90;99.90;;;;;;6256518;22;20190;-79
2023/08/04 11:18:15;;;;;;;10.57;10.27;;;23.00;99.90;;;;;;6256065;22;20186;-79
2023/08/04 11:20:43;;;;;;;10.70;10.40;;;23.10;99.90;;;;;;6255430;22;20225;-79
2023/08/04 11:23:13;;;;;;;10.57;10.27;;;23.10;99.90;;;;;;6256537;22;20202;-79
2023/08/04 11:25:41;;;;;;;10.63;10.32;;;23.10;99.90;;;;;;6256555;22;20262;-80
2023/08/04 11:28:08;;;;;;;10.40;10.10;;;23.10;99.90;;;;;;6255834;22;20230;-80
2023/08/04 11:30:37;;;;;;;10.40;10.10;;;23.20;99.90;;;;;;6255452;22;20209;-80
2023/08/04 11:33:08;;;;;;;10.50;10.20;;;23.10;99.90;;;;;;6254359;22;20237;-79
2023/08/04 11:35:35;;;;;;;10.38;10.07;;;23.20;99.90;;;;;;6263235;22;20186;-78
2023/08/04 11:38:03;;;;;;;10.50;10.20;;;23.10;99.90;;;;;;6269922;22;20213;-79
2023/08/04 11:40:32;;;;;;;10.68;10.38;;;23.10;99.90;;;;;;6258180;22;20213;-78
2023/08/04 11:43:01;;;;;;;10.30;10.00;;;23.10;99.90;;;;;;6256270;22;20210;-79
2023/08/04 11:45:32;;;;;;;10.40;10.10;;;23.00;99.90;;;;;;6253872;22;20237;-78
2023/08/04 11:48:01;;;;;;;10.45;10.15;;;22.50;99.90;;;;;;6252825;22;20190;-78
2023/08/04 11:50:28;;;;;;;9.57;9.27;;;22.30;99.90;;;;;;6253229;22;20214;-79
2023/08/04 11:52:55;;;;;;;9.70;9.40;;;22.10;99.90;;;;;;6252992;22;20693;-79
2023/08/04 11:55:22;;;;;;;9.80;9.50;;;22.00;99.90;;;;;;6257632;22;20201;-78
2023/08/04 11:57:52;;;;;;;9.85;9.55;;;22.00;99.90;;;;;;6257017;22;20723;-79
2023/08/04 12:00:33;;;;;;;9.90;9.60;;;22.10;99.90;;;;;;6255983;22;20272;-79
2023/08/04 12:03:03;;;;;;;10.02;9.73;;;22.20;99.90;;;;;;6257514;22;20244;-79
2023/08/04 12:05:31;;;;;;;9.90;9.60;;;22.20;99.90;;;;;;6256622;22;20237;-80
2023/08/04 12:07:59;;;;;;;9.70;9.40;;;22.30;99.90;;;;;;6256533;22;20190;-80
2023/08/04 12:10:28;;;;;;;10.50;10.20;;;22.40;99.90;;;;;;6258110;22;20296;-79
2023/08/04 12:12:57;;;;;;;10.50;10.20;;;22.30;99.90;;;;;;6258826;22;20201;-80
2023/08/04 12:15:24;;;;;;;10.55;10.25;;;22.30;99.90;;;;;;6260322;22;20212;-79
2023/08/04 12:17:51;;;;;;;10.50;10.20;;;22.50;99.90;;;;;;6258334;22;20206;-80
2023/08/04 12:20:18;;;;;;;10.40;10.10;;;22.70;99.90;;;;;;6256474;22;20210;-80
2023/08/04 12:22:45;;;;;;;10.07;9.77;;;22.80;99.90;;;;;;6255885;22;20253;-79
2023/08/04 12:25:14;;;;;;;10.50;10.20;;;22.80;99.90;;;;;;6257741;22;20209;-80
2023/08/04 12:27:41;;;;;;;10.40;10.10;;;22.90;99.90;;;;;;6262071;22;20191;-79
2023/08/04 12:30:10;;;;;;;10.00;9.70;;;22.80;99.90;;;;;;6260440;22;20221;-80
2023/08/04 12:32:37;;;;;;;10.20;9.90;;;23.00;99.90;;;;;;6258202;22;20206;-79
2023/08/04 12:35:06;;;;;;;10.10;9.80;;;23.10;99.90;;;;;;6262372;22;20225;-79
2023/08/04 12:37:33;;;;;;;10.00;9.70;;;23.10;99.90;;;;;;6272850;22;20221;-79
2023/08/04 12:40:00;;;;;;;9.95;9.65;;;23.20;99.90;;;;;;6274950;22;20189;-79
2023/08/04 12:42:27;;;;;;;9.95;9.65;;;23.20;99.90;;;;;;6273880;22;20246;-78
2023/08/04 12:44:54;;;;;;;10.35;10.05;;;23.30;99.90;;;;;;6273733;22;20214;-79
2023/08/04 12:47:23;;;;;;;10.40;10.10;;;23.40;99.90;;;;;;6273420;22;20257;-79
2023/08/04 12:49:50;;;;;;;10.40;10.10;;;23.50;99.90;;;;;;6272799;22;20267;-79
2023/08/04 12:52:17;;;;;;;10.32;10.02;;;23.50;99.90;;;;;;6275417;22;20214;-79
2023/08/04 12:54:44;;;;;;;10.20;9.90;;;23.50;99.90;;;;;;6278999;22;20191;-79
2023/08/04 12:57:13;;;;;;;9.93;9.63;;;23.50;99.90;;;;;;6275381;22;20198;-77
2023/08/04 12:59:40;;;;;;;10.10;9.80;;;23.60;99.90;;;;;;6271397;22;20194;-78
2023/08/04 13:02:08;;;;;;;10.50;10.20;;;23.90;99.90;;;;;;6271259;22;20249;-78
2023/08/04 13:04:36;;;;;;;10.60;10.30;;;24.20;99.90;;;;;;6275710;22;20228;-77
2023/08/04 13:07:04;;;;;;;10.50;10.20;;;24.60;99.90;;;;;;6273576;22;20197;-77
2023/08/04 13:09:31;;;;;;;10.52;10.23;;;25.00;99.90;;;;;;6272985;22;20206;-77
2023/08/04 13:11:58;;;;;;;10.50;10.20;;;25.40;99.90;;;;;;6273184;22;20190;-78